createdAt,value
2022-09-21T00:01:08.886Z,99.90
2022-09-21T00:03:37.264Z,99.90
2022-09-21T00:06:05.782Z,99.90
2022-09-21T00:08:34.149Z,99.90
2022-09-21T00:11:04.665Z,99.90
2022-09-21T00:13:33.320Z,99.90
2022-09-21T00:16:05.525Z,99.90
2022-09-21T00:18:33.918Z,99.90
2022-09-21T00:21:02.531Z,99.90
2022-09-21T00:23:30.419Z,99.90
2022-09-21T00:26:09.487Z,99.90
2022-09-21T00:28:37.841Z,99.90
2022-09-21T00:31:12.139Z,99.90
2022-09-21T00:33:40.061Z,99.90
2022-09-21T00:36:10.617Z,99.90
2022-09-21T00:38:39.222Z,99.90
2022-09-21T00:41:08.696Z,99.90
2022-09-21T00:43:38.091Z,99.90
2022-09-21T00:46:15.110Z,99.90
2022-09-21T00:48:43.352Z,99.90
2022-09-21T00:51:11.494Z,99.90
2022-09-21T00:53:40.353Z,99.90
2022-09-21T00:56:10.417Z,99.90
2022-09-21T00:58:45.235Z,99.90
2022-09-21T01:01:16.361Z,99.90
2022-09-21T01:03:45.666Z,99.90
2022-09-21T01:06:13.893Z,99.90
2022-09-21T01:08:42.983Z,99.90
2022-09-21T01:11:27.692Z,99.90
2022-09-21T01:14:13.402Z,99.90
2022-09-21T01:16:49.958Z,99.90
2022-09-21T01:19:34.639Z,99.90
2022-09-21T01:22:11.564Z,99.90
2022-09-21T01:24:55.104Z,99.90
2022-09-21T01:27:36.090Z,99.90
2022-09-21T01:30:08.724Z,99.90
2022-09-21T01:32:39.673Z,99.90
2022-09-21T01:35:11.938Z,99.90
2022-09-21T01:37:44.153Z,99.90
2022-09-21T01:40:16.536Z,99.90
2022-09-21T01:42:46.857Z,99.90
2022-09-21T01:45:19.208Z,99.90
2022-09-21T01:47:50.294Z,99.90
2022-09-21T01:50:20.301Z,99.90
2022-09-21T01:52:53.306Z,99.90
2022-09-21T01:55:28.381Z,99.90
2022-09-21T01:58:00.055Z,99.90
2022-09-21T02:00:31.109Z,99.90
2022-09-21T02:03:03.059Z,99.90
2022-09-21T02:05:31.172Z,99.90
2022-09-21T02:08:00.851Z,99.90
2022-09-21T02:10:33.523Z,99.90
2022-09-21T02:13:06.128Z,99.90
2022-09-21T02:15:47.417Z,99.90
2022-09-21T02:18:22.873Z,99.90
2022-09-21T02:20:57.175Z,99.90
2022-09-21T02:23:29.539Z,99.90
2022-09-21T02:26:04.266Z,99.90
2022-09-21T02:28:39.799Z,99.90
2022-09-21T02:31:17.816Z,99.90
2022-09-21T02:33:53.512Z,99.90
2022-09-21T02:36:30.360Z,99.90
2022-09-21T02:39:05.821Z,99.90
2022-09-21T02:41:40.214Z,99.90
2022-09-21T02:44:12.131Z,99.90
2022-09-21T02:46:45.158Z,99.90
2022-09-21T02:49:17.663Z,99.90
2022-09-21T02:51:48.023Z,99.90
2022-09-21T02:54:18.989Z,99.90
2022-09-21T02:56:48.991Z,99.90
2022-09-21T02:59:17.657Z,99.90
2022-09-21T03:01:47.947Z,99.90
2022-09-21T03:04:15.792Z,99.90
2022-09-21T03:06:43.920Z,99.90
2022-09-21T03:09:11.786Z,99.90
2022-09-21T03:11:42.274Z,99.90
2022-09-21T03:14:10.344Z,99.90
2022-09-21T03:16:39.056Z,99.90
2022-09-21T03:19:08.897Z,99.90
2022-09-21T03:21:38.378Z,99.90
2022-09-21T03:24:09.225Z,99.90
2022-09-21T03:26:37.259Z,99.90
2022-09-21T03:29:05.213Z,99.90
2022-09-21T03:31:34.493Z,99.90
2022-09-21T03:34:02.374Z,99.90
2022-09-21T03:36:31.553Z,99.90
2022-09-21T03:38:59.378Z,99.90
2022-09-21T03:41:27.206Z,99.90
2022-09-21T03:43:55.116Z,99.90
2022-09-21T03:46:23.033Z,99.90
2022-09-21T03:48:50.903Z,99.90
2022-09-21T03:51:18.735Z,99.90
2022-09-21T03:53:47.918Z,99.90
2022-09-21T03:56:16.051Z,99.90
2022-09-21T03:58:43.937Z,99.90
2022-09-21T04:01:12.002Z,99.90
2022-09-21T04:03:39.919Z,99.90
2022-09-21T04:06:10.433Z,99.90
2022-09-21T04:08:38.277Z,99.90
2022-09-21T04:11:12.133Z,99.90
2022-09-21T04:13:41.995Z,99.90
2022-09-21T04:16:10.616Z,99.90
2022-09-21T04:18:38.817Z,99.90
2022-09-21T04:21:07.296Z,99.90
2022-09-21T04:23:35.103Z,99.90
2022-09-21T04:26:03.646Z,99.90
2022-09-21T04:28:32.909Z,99.90
2022-09-21T04:31:00.764Z,99.90
2022-09-21T04:33:28.637Z,99.90
2022-09-21T04:35:56.790Z,99.90
2022-09-21T04:38:24.682Z,99.90
2022-09-21T04:40:57.057Z,99.90
2022-09-21T04:43:25.116Z,99.90
2022-09-21T04:45:54.353Z,99.90
2022-09-21T04:48:22.200Z,99.90
2022-09-21T04:50:50.663Z,99.90
2022-09-21T04:53:18.779Z,99.90
2022-09-21T04:55:47.059Z,99.90
2022-09-21T04:58:14.879Z,99.90
2022-09-21T05:00:42.680Z,99.90
2022-09-21T05:03:11.995Z,99.90
2022-09-21T05:05:39.855Z,99.90
2022-09-21T05:08:07.717Z,99.90
2022-09-21T05:10:34.955Z,99.90
2022-09-21T05:13:02.771Z,99.90
2022-09-21T05:15:30.683Z,99.90
2022-09-21T05:17:58.634Z,99.90
2022-09-21T05:20:27.863Z,99.90
2022-09-21T05:22:55.702Z,99.90
2022-09-21T05:25:23.531Z,99.90
2022-09-21T05:27:51.348Z,99.90
2022-09-21T05:30:20.165Z,99.90
2022-09-21T05:32:57.034Z,99.90
2022-09-21T05:35:34.001Z,99.90
2022-09-21T05:38:09.402Z,99.90
2022-09-21T05:40:37.716Z,99.90
2022-09-21T05:43:05.949Z,99.90
2022-09-21T05:45:34.374Z,99.90
2022-09-21T05:48:12.786Z,99.90
2022-09-21T05:50:53.949Z,99.90
2022-09-21T05:53:44.945Z,99.90
2022-09-21T05:56:23.424Z,99.90
2022-09-21T05:59:01.377Z,99.90
2022-09-21T06:01:41.770Z,99.90
2022-09-21T06:04:12.590Z,99.90
2022-09-21T06:06:41.845Z,99.90
2022-09-21T06:09:09.685Z,99.90
2022-09-21T06:11:37.834Z,99.90
2022-09-21T06:14:06.183Z,99.90
2022-09-21T06:16:40.303Z,99.90
2022-09-21T06:19:08.197Z,99.90
2022-09-21T06:21:36.054Z,99.90
2022-09-21T06:24:05.779Z,99.90
2022-09-21T06:26:33.600Z,99.90
2022-09-21T06:29:01.592Z,99.90
2022-09-21T06:31:29.651Z,99.90
2022-09-21T06:33:57.616Z,99.90
2022-09-21T06:36:25.567Z,99.90
2022-09-21T06:38:53.362Z,99.90
2022-09-21T06:41:22.531Z,99.90
2022-09-21T06:43:50.317Z,99.90
2022-09-21T06:46:18.216Z,99.90
2022-09-21T06:48:46.075Z,99.90
2022-09-21T06:51:13.888Z,99.90
2022-09-21T06:53:41.734Z,99.90
2022-09-21T06:56:11.231Z,99.90
2022-09-21T06:58:40.418Z,99.90
2022-09-21T07:01:09.836Z,99.90
2022-09-21T07:03:38.602Z,99.90
2022-09-21T07:06:07.255Z,99.90
2022-09-21T07:11:25.098Z,99.90
2022-09-21T07:13:54.426Z,99.90
2022-09-21T07:16:22.423Z,99.90
2022-09-21T07:18:50.456Z,99.90
2022-09-21T07:21:18.338Z,99.90
2022-09-21T07:23:46.154Z,99.90
2022-09-21T07:26:15.580Z,99.90
2022-09-21T07:28:43.522Z,99.90
2022-09-21T07:31:15.031Z,99.90
2022-09-21T07:33:43.071Z,99.90
2022-09-21T07:36:13.778Z,99.90
2022-09-21T07:38:43.138Z,99.90
2022-09-21T07:41:13.556Z,99.90
2022-09-21T07:43:41.835Z,99.90
2022-09-21T07:46:13.005Z,99.90
2022-09-21T07:48:41.099Z,99.90
2022-09-21T07:51:11.090Z,99.90
2022-09-21T07:53:41.338Z,99.90
2022-09-21T07:56:10.862Z,99.90
2022-09-21T07:58:57.025Z,99.90
2022-09-21T08:01:27.040Z,99.90
2022-09-21T08:03:56.804Z,99.90
2022-09-21T08:06:25.841Z,99.90
2022-09-21T08:08:57.743Z,99.90
2022-09-21T08:11:27.818Z,99.90
2022-09-21T08:13:57.741Z,99.90
2022-09-21T08:16:28.766Z,99.90
2022-09-21T08:18:56.821Z,99.90
2022-09-21T08:21:24.654Z,99.90
2022-09-21T08:23:52.558Z,99.90
2022-09-21T08:26:21.244Z,99.90
2022-09-21T08:28:52.240Z,99.90
2022-09-21T08:31:22.313Z,99.90
2022-09-21T08:33:52.589Z,99.90
2022-09-21T08:36:20.901Z,99.90
2022-09-21T08:38:49.053Z,99.90
2022-09-21T08:41:19.838Z,99.90
2022-09-21T08:43:52.133Z,99.90
2022-09-21T08:46:23.122Z,99.90
2022-09-21T08:48:57.340Z,99.90
2022-09-21T08:51:29.759Z,99.90
2022-09-21T08:54:00.878Z,99.90
2022-09-21T08:56:41.868Z,99.90
2022-09-21T08:59:16.578Z,99.90
2022-09-21T09:01:58.213Z,99.90
2022-09-21T09:04:46.670Z,99.90
2022-09-21T09:07:34.513Z,99.90
2022-09-21T09:10:15.881Z,99.90
2022-09-21T09:12:55.191Z,99.90
2022-09-21T09:15:49.354Z,99.90
2022-09-21T09:18:25.862Z,99.90
2022-09-21T09:20:59.185Z,99.90
2022-09-21T09:23:29.404Z,99.90
2022-09-21T09:26:02.897Z,99.90
2022-09-21T09:28:35.317Z,99.90
2022-09-21T09:31:17.953Z,99.90
2022-09-21T09:33:54.930Z,99.90
2022-09-21T09:36:54.001Z,99.90
2022-09-21T09:39:17.844Z,99.90
2022-09-21T09:42:03.452Z,99.90
2022-09-21T09:44:46.724Z,99.90
2022-09-21T09:47:27.348Z,99.90
2022-09-21T09:50:04.331Z,99.90
2022-09-21T09:52:33.923Z,99.90
2022-09-21T09:55:01.878Z,99.90
2022-09-21T09:57:32.261Z,99.90
2022-09-21T10:00:04.161Z,99.90
2022-09-21T10:02:31.970Z,99.90
2022-09-21T10:05:05.965Z,99.90
2022-09-21T10:07:40.541Z,99.90
2022-09-21T10:10:24.615Z,99.90
2022-09-21T10:12:53.373Z,99.90
2022-09-21T10:15:22.269Z,99.90
2022-09-21T10:17:58.246Z,99.90
2022-09-21T10:20:26.117Z,99.90
2022-09-21T10:22:57.110Z,99.90
2022-09-21T10:25:24.933Z,99.90
2022-09-21T10:27:53.909Z,99.90
2022-09-21T10:30:35.523Z,99.90
2022-09-21T10:33:03.371Z,99.90
2022-09-21T10:35:31.170Z,99.90
2022-09-21T10:38:21.980Z,99.90
2022-09-21T10:40:51.057Z,99.60
2022-09-21T10:43:31.870Z,99.90
2022-09-21T10:46:02.790Z,99.90
2022-09-21T10:48:31.074Z,99.90
2022-09-21T10:50:59.278Z,99.90
2022-09-21T10:53:30.502Z,99.90
2022-09-21T10:56:17.797Z,99.40
2022-09-21T10:59:13.672Z,98.40
2022-09-21T11:01:46.782Z,98.90
2022-09-21T11:04:20.470Z,98.70
2022-09-21T11:06:52.582Z,97.70
2022-09-21T11:09:26.906Z,98.70
2022-09-21T11:12:00.588Z,98.30
2022-09-21T11:14:44.309Z,97.50
2022-09-21T11:17:18.386Z,97.90
2022-09-21T11:19:52.307Z,96.30
2022-09-21T11:22:28.554Z,96.20
2022-09-21T11:25:03.119Z,95.80
2022-09-21T11:27:36.180Z,94.30
2022-09-21T11:30:08.143Z,93.00
2022-09-21T11:32:54.775Z,93.20
2022-09-21T11:35:48.827Z,93.40
2022-09-21T11:38:34.679Z,93.00
2022-09-21T11:41:23.443Z,93.80
2022-09-21T11:44:15.170Z,94.50
2022-09-21T11:46:51.881Z,94.20
2022-09-21T11:49:35.285Z,94.30
2022-09-21T11:52:21.678Z,94.20
2022-09-21T11:55:05.099Z,95.20
2022-09-21T11:57:41.447Z,95.80
2022-09-21T12:00:15.949Z,96.70
2022-09-21T12:03:13.702Z,96.20
2022-09-21T12:05:49.286Z,97.00
2022-09-21T12:08:53.167Z,97.10
2022-09-21T12:11:40.234Z,97.80
2022-09-21T12:14:22.383Z,98.60
2022-09-21T12:16:58.376Z,98.90
2022-09-21T12:19:35.488Z,99.30
2022-09-21T12:22:07.556Z,99.60
2022-09-21T12:24:41.554Z,99.50
2022-09-21T12:27:15.149Z,99.10
2022-09-21T12:29:48.651Z,99.80
2022-09-21T12:32:25.281Z,99.50
2022-09-21T12:34:59.824Z,99.40
2022-09-21T12:37:34.456Z,99.30
2022-09-21T12:40:07.343Z,98.60
2022-09-21T12:42:42.656Z,98.50
2022-09-21T12:45:22.842Z,98.70
2022-09-21T12:47:58.072Z,99.20
2022-09-21T12:50:31.753Z,99.10
2022-09-21T12:53:00.073Z,98.20
2022-09-21T12:55:41.452Z,98.30
2022-09-21T12:58:19.789Z,98.10
2022-09-21T13:01:00.279Z,97.30
2022-09-21T13:03:35.108Z,97.10
2022-09-21T13:06:32.057Z,96.90
2022-09-21T13:09:05.099Z,97.30
2022-09-21T13:11:36.067Z,96.80
2022-09-21T13:14:05.684Z,95.20
2022-09-21T13:16:38.425Z,92.40
2022-09-21T13:19:17.991Z,92.50
2022-09-21T13:21:46.127Z,91.60
2022-09-21T13:24:28.695Z,88.90
2022-09-21T13:27:05.083Z,85.70
2022-09-21T13:29:34.786Z,85.50
2022-09-21T13:32:20.890Z,86.30
2022-09-21T13:34:51.456Z,86.60
2022-09-21T13:37:30.863Z,86.40
2022-09-21T13:40:41.870Z,89.10
2022-09-21T13:43:47.162Z,88.90
2022-09-21T13:46:48.104Z,90.60
2022-09-21T13:49:26.053Z,90.40
2022-09-21T13:52:00.030Z,90.90
2022-09-21T13:54:33.423Z,91.10
2022-09-21T13:57:09.122Z,91.10
2022-09-21T13:59:39.258Z,91.30
2022-09-21T14:02:26.080Z,90.90
2022-09-21T14:04:56.255Z,91.80
2022-09-21T14:07:30.709Z,92.30
2022-09-21T14:10:01.414Z,92.80
2022-09-21T14:12:36.013Z,92.40
2022-09-21T14:15:26.707Z,87.90
2022-09-21T14:18:22.414Z,82.20
2022-09-21T14:21:17.149Z,73.60
2022-09-21T14:24:10.215Z,69.40
2022-09-21T14:27:03.101Z,62.00
2022-09-21T14:29:39.489Z,55.40
2022-09-21T14:32:16.907Z,54.80
2022-09-21T14:34:48.423Z,54.70
2022-09-21T14:37:30.017Z,50.20
2022-09-21T14:39:59.550Z,48.20
2022-09-21T14:42:29.825Z,46.50
2022-09-21T14:45:00.261Z,44.10
2022-09-21T14:47:58.946Z,40.10
2022-09-21T14:50:36.025Z,40.00
2022-09-21T14:53:28.076Z,39.20
2022-09-21T14:56:22.960Z,39.20
2022-09-21T14:59:21.794Z,40.20
2022-09-21T15:01:59.623Z,41.20
2022-09-21T15:04:52.431Z,42.70
2022-09-21T15:07:49.592Z,43.60
2022-09-21T15:10:43.224Z,44.70
2022-09-21T15:13:41.588Z,46.70
2022-09-21T15:16:20.098Z,47.30
2022-09-21T15:18:49.232Z,48.60
2022-09-21T15:21:27.573Z,46.70
2022-09-21T15:23:55.468Z,47.50
2022-09-21T15:26:29.259Z,47.90
2022-09-21T15:29:14.904Z,49.20
2022-09-21T15:31:43.498Z,50.60
2022-09-21T15:34:15.035Z,50.50
2022-09-21T15:36:44.299Z,50.50
2022-09-21T15:39:27.254Z,51.00
2022-09-21T15:42:20.049Z,51.90
2022-09-21T15:44:50.528Z,53.00
2022-09-21T15:47:21.767Z,53.70
2022-09-21T15:49:50.841Z,54.30
2022-09-21T15:52:28.540Z,54.90
2022-09-21T15:55:01.296Z,54.30
2022-09-21T15:57:38.963Z,54.90
2022-09-21T16:00:19.276Z,56.30
2022-09-21T16:03:05.497Z,56.30
2022-09-21T16:05:42.323Z,56.70
2022-09-21T16:08:22.346Z,57.80
2022-09-21T16:10:50.735Z,59.40
2022-09-21T16:13:40.942Z,59.40
2022-09-21T16:16:11.938Z,60.70
2022-09-21T16:18:47.684Z,59.90
2022-09-21T16:21:24.396Z,61.60
2022-09-21T16:23:55.406Z,63.20
2022-09-21T16:26:26.602Z,65.00
2022-09-21T16:29:17.552Z,64.90
2022-09-21T16:31:50.137Z,65.40
2022-09-21T16:34:26.047Z,65.70
2022-09-21T16:36:54.827Z,65.90
2022-09-21T16:39:23.302Z,65.00
2022-09-21T16:41:55.103Z,65.30
2022-09-21T16:44:26.457Z,65.20
2022-09-21T16:46:57.649Z,66.10
2022-09-21T16:49:30.492Z,67.00
2022-09-21T16:51:59.296Z,67.60
2022-09-21T16:54:27.490Z,68.50
2022-09-21T16:56:57.319Z,69.70
2022-09-21T16:59:27.646Z,70.80
2022-09-21T17:01:57.788Z,71.70
2022-09-21T17:04:27.856Z,72.90
2022-09-21T17:06:56.724Z,74.40
2022-09-21T17:09:29.611Z,75.40
2022-09-21T17:12:01.141Z,77.20
2022-09-21T17:14:35.229Z,78.30
2022-09-21T17:17:05.990Z,81.50
2022-09-21T17:19:34.702Z,83.80
2022-09-21T17:22:03.790Z,84.60
2022-09-21T17:24:49.204Z,86.50
2022-09-21T17:27:19.163Z,87.10
2022-09-21T17:29:49.106Z,90.30
2022-09-21T17:32:20.063Z,91.80
2022-09-21T17:34:49.980Z,93.90
2022-09-21T17:37:17.838Z,94.80
2022-09-21T17:39:46.185Z,96.10
2022-09-21T17:42:18.669Z,96.60
2022-09-21T17:45:01.560Z,98.60
2022-09-21T17:47:31.062Z,99.50
2022-09-21T17:50:02.915Z,99.90
2022-09-21T17:52:48.723Z,99.60
2022-09-21T17:55:17.202Z,99.90
2022-09-21T17:57:56.528Z,99.90
2022-09-21T18:00:30.998Z,99.90
2022-09-21T18:02:59.484Z,99.90
2022-09-21T18:05:29.384Z,99.90
2022-09-21T18:07:58.279Z,99.90
2022-09-21T18:10:27.029Z,99.90
2022-09-21T18:13:16.895Z,99.90
2022-09-21T18:15:57.183Z,99.90
2022-09-21T18:18:38.870Z,99.90
2022-09-21T18:21:14.217Z,99.90
2022-09-21T18:23:47.375Z,99.90
2022-09-21T18:26:18.383Z,99.90
2022-09-21T18:28:57.009Z,99.90
2022-09-21T18:31:50.417Z,99.90
2022-09-21T18:34:43.337Z,99.90
2022-09-21T18:37:19.698Z,99.90
2022-09-21T18:39:55.594Z,99.90
2022-09-21T18:42:39.421Z,99.90
2022-09-21T18:45:15.402Z,99.90
2022-09-21T18:47:52.710Z,99.90
2022-09-21T18:50:25.791Z,99.90
2022-09-21T18:53:06.449Z,99.90
2022-09-21T18:55:37.105Z,99.90
2022-09-21T18:58:05.481Z,99.90
2022-09-21T19:00:35.281Z,99.90
2022-09-21T19:03:23.616Z,99.90
2022-09-21T19:06:00.509Z,99.90
2022-09-21T19:08:39.024Z,99.90
2022-09-21T19:11:15.510Z,99.90
2022-09-21T19:13:51.286Z,99.90
2022-09-21T19:16:30.037Z,99.90
2022-09-21T19:19:11.190Z,99.90
2022-09-21T19:21:46.309Z,99.90
2022-09-21T19:24:23.723Z,99.90
2022-09-21T19:27:00.063Z,99.90
2022-09-21T19:29:42.861Z,99.90
2022-09-21T19:32:17.042Z,99.90
2022-09-21T19:34:47.512Z,99.90
2022-09-21T19:37:15.496Z,99.90
2022-09-21T19:39:43.734Z,99.90
2022-09-21T19:42:27.840Z,99.90
2022-09-21T19:45:09.771Z,99.90
2022-09-21T19:47:42.309Z,99.90
2022-09-21T19:50:18.093Z,99.90
2022-09-21T19:52:46.973Z,99.90
2022-09-21T19:55:34.669Z,99.90
2022-09-21T19:58:21.136Z,99.90
2022-09-21T20:00:53.043Z,99.90
2022-09-21T20:03:31.365Z,99.90
2022-09-21T20:06:07.589Z,99.90
2022-09-21T20:08:41.701Z,99.90
2022-09-21T20:11:14.245Z,99.90
2022-09-21T20:13:54.487Z,99.90
2022-09-21T20:16:33.999Z,99.90
2022-09-21T20:19:11.127Z,99.90
2022-09-21T20:21:43.919Z,99.90
2022-09-21T20:24:20.614Z,99.90
2022-09-21T20:26:50.854Z,99.90
2022-09-21T20:29:19.463Z,99.90
2022-09-21T20:31:51.005Z,99.90
2022-09-21T20:34:19.192Z,99.90
2022-09-21T20:36:48.353Z,99.90
2022-09-21T20:39:16.217Z,99.90
2022-09-21T20:41:44.059Z,99.90
2022-09-21T20:44:14.355Z,99.90
2022-09-21T20:46:42.175Z,99.90
2022-09-21T20:49:15.126Z,99.90
2022-09-21T20:51:42.959Z,99.90
2022-09-21T20:54:12.126Z,99.90
2022-09-21T20:56:39.975Z,99.90
2022-09-21T20:59:07.906Z,99.90
2022-09-21T21:01:35.777Z,99.90
2022-09-21T21:04:03.832Z,99.90
2022-09-21T21:06:32.522Z,99.90
2022-09-21T21:09:00.752Z,99.90
2022-09-21T21:11:30.163Z,99.90
2022-09-21T21:13:58.717Z,99.90
2022-09-21T21:16:26.634Z,99.90
2022-09-21T21:18:54.527Z,99.90
2022-09-21T21:21:24.563Z,99.90
2022-09-21T21:24:10.440Z,99.90
2022-09-21T21:27:00.733Z,99.90
2022-09-21T21:29:27.538Z,99.90
2022-09-21T21:31:55.432Z,99.90
2022-09-21T21:34:24.038Z,99.90
2022-09-21T21:36:52.082Z,99.90
2022-09-21T21:39:20.062Z,99.90
2022-09-21T21:41:49.273Z,99.90
2022-09-21T21:44:17.203Z,99.90
2022-09-21T21:46:45.080Z,99.90
2022-09-21T21:49:13.168Z,99.90
2022-09-21T21:51:41.143Z,99.90
2022-09-21T21:54:09.470Z,99.90
2022-09-21T21:56:37.348Z,99.90
2022-09-21T21:59:06.643Z,99.90
2022-09-21T22:01:34.586Z,99.90
2022-09-21T22:04:03.498Z,99.90
2022-09-21T22:06:33.847Z,99.90
2022-09-21T22:09:02.526Z,99.90
2022-09-21T22:11:31.198Z,99.90
2022-09-21T22:14:01.332Z,99.90
2022-09-21T22:16:32.399Z,99.90
2022-09-21T22:19:02.586Z,99.90
2022-09-21T22:21:33.050Z,99.90
2022-09-21T22:24:02.645Z,99.90
2022-09-21T22:26:32.301Z,99.90
2022-09-21T22:29:02.109Z,99.90
2022-09-21T22:31:33.240Z,99.90
2022-09-21T22:34:01.345Z,99.90
2022-09-21T22:36:32.129Z,99.90
2022-09-21T22:39:00.346Z,99.90
2022-09-21T22:41:31.135Z,99.90
2022-09-21T22:44:00.025Z,99.90
2022-09-21T22:46:29.080Z,99.90
2022-09-21T22:49:00.410Z,99.90
2022-09-21T22:51:29.013Z,99.90
2022-09-21T22:53:57.348Z,99.90
2022-09-21T22:56:27.579Z,99.90
2022-09-21T22:58:57.195Z,99.90
2022-09-21T23:01:26.911Z,99.90
2022-09-21T23:03:56.508Z,99.90
2022-09-21T23:06:28.295Z,99.90
2022-09-21T23:08:59.005Z,99.90
2022-09-21T23:11:29.038Z,99.90
2022-09-21T23:13:58.158Z,99.90
2022-09-21T23:16:29.017Z,99.90
2022-09-21T23:18:57.771Z,99.90
2022-09-21T23:21:28.548Z,99.90
2022-09-21T23:23:59.564Z,99.90
2022-09-21T23:26:28.568Z,99.90
2022-09-21T23:28:58.025Z,99.90
2022-09-21T23:31:27.602Z,99.90
2022-09-21T23:33:57.529Z,99.90
2022-09-21T23:36:28.821Z,99.90
2022-09-21T23:38:56.979Z,99.90
2022-09-21T23:41:26.727Z,99.90
2022-09-21T23:43:55.447Z,99.90
2022-09-21T23:46:25.871Z,99.90
2022-09-21T23:48:54.118Z,99.90
2022-09-21T23:51:22.703Z,99.90
2022-09-21T23:53:52.138Z,99.90
2022-09-21T23:56:22.135Z,99.90
2022-09-21T23:58:50.551Z,99.90
